sensor_id;sensor_type;location;lat;lon;timestamp;noise_LAeq;noise_LA_min;noise_LA_max;noise_LA01;noise_LA95
69670;Laerm;66535;52.370;4.832;2023-06-04T00:00:08;45.70;43.14;49.08;;
69670;Laerm;66535;52.370;4.832;2023-06-04T00:00:39;46.15;42.78;50.96;;
69670;Laerm;66535;52.370;4.832;2023-06-04T00:01:11;49.52;46.79;53.33;;
69670;Laerm;66535;52.370;4.832;2023-06-04T00:01:42;47.07;43.85;52.33;;
69670;Laerm;66535;52.370;4.832;2023-06-04T00:02:16;45.35;43.45;47.49;;
69670;Laerm;66535;52.370;4.832;2023-06-04T00:02:47;46.31;43.97;54.66;;
69670;Laerm;66535;52.370;4.832;2023-06-04T00:03:20;46.38;43.24;53.49;;
69670;Laerm;66535;52.370;4.832;2023-06-04T00:03:51;47.23;42.42;54.71;;
69670;Laerm;66535;52.370;4.832;2023-06-04T00:04:25;47.65;43.48;52.48;;
69670;Laerm;66535;52.370;4.832;2023-06-04T00:04:57;50.17;46.84;56.23;;
69670;Laerm;66535;52.370;4.832;2023-06-04T00:05:28;48.29;45.42;53.79;;
69670;Laerm;66535;52.370;4.832;2023-06-04T00:06:00;49.91;45.62;57.05;;
69670;Laerm;66535;52.370;4.832;2023-06-04T00:06:32;49.09;44.52;54.41;;
69670;Laerm;66535;52.370;4.832;2023-06-04T00:07:03;46.68;42.98;51.87;;
69670;Laerm;66535;52.370;4.832;2023-06-04T00:07:36;46.53;43.28;58.19;;
69670;Laerm;66535;52.370;4.832;2023-06-04T00:08:07;45.78;43.11;48.30;;
69670;Laerm;66535;52.370;4.832;2023-06-04T00:08:38;48.07;44.87;51.09;;
69670;Laerm;66535;52.370;4.832;2023-06-04T00:09:12;44.88;42.68;47.52;;
69670;Laerm;66535;52.370;4.832;2023-06-04T00:09:43;47.97;43.79;51.75;;
69670;Laerm;66535;52.370;4.832;2023-06-04T00:10:14;50.95;43.03;58.10;;
69670;Laerm;66535;52.370;4.832;2023-06-04T00:10:47;45.91;42.35;49.27;;
69670;Laerm;66535;52.370;4.832;2023-06-04T00:11:18;44.66;41.27;47.21;;
69670;Laerm;66535;52.370;4.832;2023-06-04T00:11:50;45.47;42.88;50.36;;
69670;Laerm;66535;52.370;4.832;2023-06-04T00:12:22;48.10;44.21;52.40;;
69670;Laerm;66535;52.370;4.832;2023-06-04T00:12:54;48.23;45.32;51.04;;
69670;Laerm;66535;52.370;4.832;2023-06-04T00:13:25;48.15;44.44;65.40;;
69670;Laerm;66535;52.370;4.832;2023-06-04T00:13:57;47.63;43.11;60.82;;
69670;Laerm;66535;52.370;4.832;2023-06-04T00:14:28;46.58;43.98;51.04;;
69670;Laerm;66535;52.370;4.832;2023-06-04T00:14:59;46.80;44.11;50.81;;
69670;Laerm;66535;52.370;4.832;2023-06-04T00:15:32;45.26;43.16;48.81;;
69670;Laerm;66535;52.370;4.832;2023-06-04T00:16:04;46.48;43.75;49.53;;
69670;Laerm;66535;52.370;4.832;2023-06-04T00:16:35;45.19;42.57;47.41;;
69670;Laerm;66535;52.370;4.832;2023-06-04T00:17:07;44.58;41.93;51.15;;
69670;Laerm;66535;52.370;4.832;2023-06-04T00:17:40;46.27;43.23;52.95;;
69670;Laerm;66535;52.370;4.832;2023-06-04T00:18:11;47.11;41.90;54.64;;
69670;Laerm;66535;52.370;4.832;2023-06-04T00:18:44;46.67;42.28;53.19;;
69670;Laerm;66535;52.370;4.832;2023-06-04T00:19:16;46.78;42.01;53.35;;
69670;Laerm;66535;52.370;4.832;2023-06-04T00:19:47;45.97;42.46;50.90;;
69670;Laerm;66535;52.370;4.832;2023-06-04T00:20:19;43.45;41.35;45.77;;
69670;Laerm;66535;52.370;4.832;2023-06-04T00:20:51;45.04;42.32;56.30;;
69670;Laerm;66535;52.370;4.832;2023-06-04T00:21:22;44.48;40.93;49.41;;
69670;Laerm;66535;52.370;4.832;2023-06-04T00:21:54;46.85;40.91;54.32;;
69670;Laerm;66535;52.370;4.832;2023-06-04T00:22:26;46.10;41.50;54.36;;
69670;Laerm;66535;52.370;4.832;2023-06-04T00:22:57;46.41;40.50;53.37;;
69670;Laerm;66535;52.370;4.832;2023-06-04T00:23:28;44.17;41.33;51.39;;
69670;Laerm;66535;52.370;4.832;2023-06-04T00:24:01;43.90;41.24;49.92;;
69670;Laerm;66535;52.370;4.832;2023-06-04T00:24:34;41.89;39.67;44.46;;
69670;Laerm;66535;52.370;4.832;2023-06-04T00:25:05;43.19;40.66;46.04;;
69670;Laerm;66535;52.370;4.832;2023-06-04T00:25:37;46.21;40.01;60.60;;
69670;Laerm;66535;52.370;4.832;2023-06-04T00:26:09;48.05;43.07;54.68;;
69670;Laerm;66535;52.370;4.832;2023-06-04T00:26:40;46.67;40.34;53.62;;
69670;Laerm;66535;52.370;4.832;2023-06-04T00:27:12;44.62;40.57;51.34;;
69670;Laerm;66535;52.370;4.832;2023-06-04T00:27:43;45.63;42.07;48.44;;
69670;Laerm;66535;52.370;4.832;2023-06-04T00:28:15;43.24;39.98;47.44;;
69670;Laerm;66535;52.370;4.832;2023-06-04T00:28:47;45.97;40.16;52.34;;
69670;Laerm;66535;52.370;4.832;2023-06-04T00:29:18;46.51;42.66;54.44;;
69670;Laerm;66535;52.370;4.832;2023-06-04T00:29:49;45.80;41.13;50.27;;
69670;Laerm;66535;52.370;4.832;2023-06-04T00:30:21;42.04;39.75;45.37;;
69670;Laerm;66535;52.370;4.832;2023-06-04T00:30:53;45.15;40.65;52.37;;
69670;Laerm;66535;52.370;4.832;2023-06-04T00:31:24;42.21;38.82;47.22;;
69670;Laerm;66535;52.370;4.832;2023-06-04T00:31:57;45.28;42.48;48.31;;
69670;Laerm;66535;52.370;4.832;2023-06-04T00:32:28;45.87;42.91;49.91;;
69670;Laerm;66535;52.370;4.832;2023-06-04T00:33:00;44.91;41.71;51.54;;
69670;Laerm;66535;52.370;4.832;2023-06-04T00:33:32;42.67;39.93;50.18;;
69670;Laerm;66535;52.370;4.832;2023-06-04T00:34:03;43.75;40.91;51.67;;
69670;Laerm;66535;52.370;4.832;2023-06-04T00:34:35;42.40;39.94;53.05;;
69670;Laerm;66535;52.370;4.832;2023-06-04T00:35:07;44.75;40.56;47.50;;
69670;Laerm;66535;52.370;4.832;2023-06-04T00:35:40;45.92;42.50;51.75;;
69670;Laerm;66535;52.370;4.832;2023-06-04T00:36:11;43.54;40.87;49.10;;
69670;Laerm;66535;52.370;4.832;2023-06-04T00:36:42;43.32;40.60;47.92;;
69670;Laerm;66535;52.370;4.832;2023-06-04T00:37:15;45.12;41.60;50.10;;
69670;Laerm;66535;52.370;4.832;2023-06-04T00:37:46;45.69;43.26;51.06;;
69670;Laerm;66535;52.370;4.832;2023-06-04T00:38:17;45.94;43.53;48.29;;
69670;Laerm;66535;52.370;4.832;2023-06-04T00:38:48;45.66;42.02;54.95;;
69670;Laerm;66535;52.370;4.832;2023-06-04T00:39:20;48.21;45.36;51.85;;
69670;Laerm;66535;52.370;4.832;2023-06-04T00:39:53;46.88;43.36;52.16;;
69670;Laerm;66535;52.370;4.832;2023-06-04T00:40:24;46.92;44.29;50.87;;
69670;Laerm;66535;52.370;4.832;2023-06-04T00:40:56;47.80;42.61;58.50;;
69670;Laerm;66535;52.370;4.832;2023-06-04T00:41:28;44.28;41.10;48.20;;
69670;Laerm;66535;52.370;4.832;2023-06-04T00:41:59;44.85;42.00;49.11;;
69670;Laerm;66535;52.370;4.832;2023-06-04T00:42:31;43.75;41.15;46.68;;
69670;Laerm;66535;52.370;4.832;2023-06-04T00:43:03;42.97;40.13;47.17;;
69670;Laerm;66535;52.370;4.832;2023-06-04T00:43:36;43.85;40.61;47.22;;
69670;Laerm;66535;52.370;4.832;2023-06-04T00:44:07;41.60;38.50;45.05;;
69670;Laerm;66535;52.370;4.832;2023-06-04T00:44:38;42.38;39.09;47.01;;
69670;Laerm;66535;52.370;4.832;2023-06-04T00:45:15;42.34;39.08;46.69;;
69670;Laerm;66535;52.370;4.832;2023-06-04T00:45:49;47.06;39.17;53.06;;
69670;Laerm;66535;52.370;4.832;2023-06-04T00:46:22;44.29;39.99;49.45;;
69670;Laerm;66535;52.370;4.832;2023-06-04T00:46:55;41.82;39.21;48.81;;
69670;Laerm;66535;52.370;4.832;2023-06-04T00:47:27;45.16;41.86;47.70;;
69670;Laerm;66535;52.370;4.832;2023-06-04T00:47:58;42.73;39.96;46.02;;
69670;Laerm;66535;52.370;4.832;2023-06-04T00:48:31;45.45;42.53;48.72;;
69670;Laerm;66535;52.370;4.832;2023-06-04T00:49:03;41.67;38.76;45.76;;
69670;Laerm;66535;52.370;4.832;2023-06-04T00:49:35;41.13;38.73;46.76;;
69670;Laerm;66535;52.370;4.832;2023-06-04T00:50:09;40.83;37.89;45.27;;
69670;Laerm;66535;52.370;4.832;2023-06-04T00:50:40;40.08;38.03;42.58;;
69670;Laerm;66535;52.370;4.832;2023-06-04T00:51:12;41.28;38.59;43.94;;
69670;Laerm;66535;52.370;4.832;2023-06-04T00:51:43;42.36;38.54;45.90;;
69670;Laerm;66535;52.370;4.832;2023-06-04T00:52:16;42.17;39.23;46.91;;
69670;Laerm;66535;52.370;4.832;2023-06-04T00:52:47;49.47;38.75;66.31;;
69670;Laerm;66535;52.370;4.832;2023-06-04T00:53:19;48.00;40.30;63.54;;
69670;Laerm;66535;52.370;4.832;2023-06-04T00:53:51;39.74;37.47;44.37;;
69670;Laerm;66535;52.370;4.832;2023-06-04T00:54:23;40.09;37.46;44.55;;
69670;Laerm;66535;52.370;4.832;2023-06-04T00:54:56;40.64;37.54;54.51;;
69670;Laerm;66535;52.370;4.832;2023-06-04T00:55:28;43.64;39.42;46.62;;
69670;Laerm;66535;52.370;4.832;2023-06-04T00:56:00;43.30;39.59;47.36;;
69670;Laerm;66535;52.370;4.832;2023-06-04T00:56:31;42.90;39.73;47.30;;
69670;Laerm;66535;52.370;4.832;2023-06-04T00:57:03;43.69;40.48;51.29;;
69670;Laerm;66535;52.370;4.832;2023-06-04T00:57:37;42.92;40.49;46.37;;
69670;Laerm;66535;52.370;4.832;2023-06-04T00:58:08;42.75;40.54;47.86;;
69670;Laerm;66535;52.370;4.832;2023-06-04T00:58:40;44.18;40.80;49.80;;
69670;Laerm;66535;52.370;4.832;2023-06-04T00:59:11;44.57;40.50;51.20;;
69670;Laerm;66535;52.370;4.832;2023-06-04T00:59:43;40.32;38.30;44.97;;
69670;Laerm;66535;52.370;4.832;2023-06-04T01:00:16;40.76;38.81;46.41;;
69670;Laerm;66535;52.370;4.832;2023-06-04T01:00:47;41.61;39.47;44.89;;
69670;Laerm;66535;52.370;4.832;2023-06-04T01:01:26;39.98;37.13;47.87;;
69670;Laerm;66535;52.370;4.832;2023-06-04T01:02:01;44.37;37.31;60.39;;
69670;Laerm;66535;52.370;4.832;2023-06-04T01:02:34;39.69;37.05;43.15;;
69670;Laerm;66535;52.370;4.832;2023-06-04T01:03:11;40.85;38.08;45.04;;
69670;Laerm;66535;52.370;4.832;2023-06-04T01:03:46;41.66;39.25;46.89;;
69670;Laerm;66535;52.370;4.832;2023-06-04T01:04:24;43.81;39.64;47.33;;
69670;Laerm;66535;52.370;4.832;2023-06-04T01:05:01;41.57;38.98;43.89;;
69670;Laerm;66535;52.370;4.832;2023-06-04T01:05:36;44.18;40.34;52.91;;
69670;Laerm;66535;52.370;4.832;2023-06-04T01:06:11;41.02;38.81;48.64;;
69670;Laerm;66535;52.370;4.832;2023-06-04T01:06:47;40.70;38.62;43.55;;
69670;Laerm;66535;52.370;4.832;2023-06-04T01:07:20;41.75;38.45;48.93;;
69670;Laerm;66535;52.370;4.832;2023-06-04T01:07:53;40.86;39.09;43.25;;
69670;Laerm;66535;52.370;4.832;2023-06-04T01:08:25;45.24;40.30;55.18;;
69670;Laerm;66535;52.370;4.832;2023-06-04T01:08:57;56.68;42.17;72.11;;
69670;Laerm;66535;52.370;4.832;2023-06-04T01:09:30;42.45;39.80;47.70;;
69670;Laerm;66535;52.370;4.832;2023-06-04T01:10:04;43.14;39.03;52.17;;
69670;Laerm;66535;52.370;4.832;2023-06-04T01:10:35;48.17;41.15;57.03;;
69670;Laerm;66535;52.370;4.832;2023-06-04T01:11:08;42.24;39.27;47.95;;
69670;Laerm;66535;52.370;4.832;2023-06-04T01:11:39;46.36;39.93;55.28;;
69670;Laerm;66535;52.370;4.832;2023-06-04T01:12:12;43.30;39.45;49.20;;
69670;Laerm;66535;52.370;4.832;2023-06-04T01:12:43;41.51;37.89;60.03;;
69670;Laerm;66535;52.370;4.832;2023-06-04T01:13:15;42.51;38.25;48.92;;
69670;Laerm;66535;52.370;4.832;2023-06-04T01:13:47;40.43;38.27;50.97;;
69670;Laerm;66535;52.370;4.832;2023-06-04T01:14:18;40.53;37.10;44.09;;
69670;Laerm;66535;52.370;4.832;2023-06-04T01:14:50;39.34;37.51;41.16;;
69670;Laerm;66535;52.370;4.832;2023-06-04T01:15:21;44.62;37.86;54.36;;
69670;Laerm;66535;52.370;4.832;2023-06-04T01:15:52;40.15;37.37;49.50;;
69670;Laerm;66535;52.370;4.832;2023-06-04T01:16:25;40.52;36.74;45.48;;
69670;Laerm;66535;52.370;4.832;2023-06-04T01:17:01;41.09;38.10;53.85;;
69670;Laerm;66535;52.370;4.832;2023-06-04T01:17:35;43.15;39.36;50.26;;
69670;Laerm;66535;52.370;4.832;2023-06-04T01:18:09;43.60;40.12;46.37;;
69670;Laerm;66535;52.370;4.832;2023-06-04T01:18:40;47.07;39.42;56.77;;
69670;Laerm;66535;52.370;4.832;2023-06-04T01:19:22;42.56;38.43;47.46;;
69670;Laerm;66535;52.370;4.832;2023-06-04T01:20:23;43.46;37.12;50.77;;
69670;Laerm;66535;52.370;4.832;2023-06-04T01:20:59;41.88;38.81;44.57;;
69670;Laerm;66535;52.370;4.832;2023-06-04T01:21:31;42.25;40.33;45.46;;
69670;Laerm;66535;52.370;4.832;2023-06-04T01:22:10;45.86;40.34;53.79;;
69670;Laerm;66535;52.370;4.832;2023-06-04T01:22:54;41.30;37.89;47.68;;
69670;Laerm;66535;52.370;4.832;2023-06-04T01:23:33;41.47;38.10;44.01;;
69670;Laerm;66535;52.370;4.832;2023-06-04T01:24:07;40.43;37.24;45.28;;
69670;Laerm;66535;52.370;4.832;2023-06-04T01:24:40;43.36;38.84;49.45;;
69670;Laerm;66535;52.370;4.832;2023-06-04T01:25:15;46.89;40.49;54.54;;
69670;Laerm;66535;52.370;4.832;2023-06-04T01:25:51;41.54;39.08;46.36;;
69670;Laerm;66535;52.370;4.832;2023-06-04T01:26:25;41.21;39.27;44.71;;
69670;Laerm;66535;52.370;4.832;2023-06-04T01:26:56;43.12;40.86;46.32;;
69670;Laerm;66535;52.370;4.832;2023-06-04T01:27:28;45.37;42.57;48.09;;
69670;Laerm;66535;52.370;4.832;2023-06-04T01:28:01;42.34;39.31;45.60;;
69670;Laerm;66535;52.370;4.832;2023-06-04T01:28:34;50.91;37.99;79.92;;
69670;Laerm;66535;52.370;4.832;2023-06-04T01:29:05;39.03;36.63;41.84;;
69670;Laerm;66535;52.370;4.832;2023-06-04T01:29:38;44.68;38.99;50.77;;
69670;Laerm;66535;52.370;4.832;2023-06-04T01:30:10;41.98;39.12;46.58;;
69670;Laerm;66535;52.370;4.832;2023-06-04T01:30:44;47.21;41.46;56.10;;
69670;Laerm;66535;52.370;4.832;2023-06-04T01:31:16;46.98;40.87;55.18;;
69670;Laerm;66535;52.370;4.832;2023-06-04T01:31:49;42.24;39.47;45.44;;
69670;Laerm;66535;52.370;4.832;2023-06-04T01:32:21;43.10;39.75;51.31;;
69670;Laerm;66535;52.370;4.832;2023-06-04T01:32:52;43.13;39.45;48.60;;
69670;Laerm;66535;52.370;4.832;2023-06-04T01:33:24;39.84;36.98;42.95;;
69670;Laerm;66535;52.370;4.832;2023-06-04T01:33:56;38.70;36.58;46.38;;
69670;Laerm;66535;52.370;4.832;2023-06-04T01:34:28;39.64;36.77;45.36;;
69670;Laerm;66535;52.370;4.832;2023-06-04T01:35:00;42.52;38.69;46.04;;
69670;Laerm;66535;52.370;4.832;2023-06-04T01:35:32;44.76;39.26;56.83;;
69670;Laerm;66535;52.370;4.832;2023-06-04T01:36:03;45.31;39.44;54.85;;
69670;Laerm;66535;52.370;4.832;2023-06-04T01:36:35;40.07;37.78;43.07;;
69670;Laerm;66535;52.370;4.832;2023-06-04T01:37:07;43.75;38.30;52.39;;
69670;Laerm;66535;52.370;4.832;2023-06-04T01:37:38;45.68;40.33;55.85;;
69670;Laerm;66535;52.370;4.832;2023-06-04T01:38:09;45.02;42.10;47.40;;
69670;Laerm;66535;52.370;4.832;2023-06-04T01:38:42;44.65;42.28;46.65;;
69670;Laerm;66535;52.370;4.832;2023-06-04T01:39:13;44.03;40.37;48.73;;
69670;Laerm;66535;52.370;4.832;2023-06-04T01:39:44;42.84;38.47;47.27;;
69670;Laerm;66535;52.370;4.832;2023-06-04T01:40:37;40.64;36.43;48.15;;
69670;Laerm;66535;52.370;4.832;2023-06-04T01:41:08;44.47;39.91;50.06;;
69670;Laerm;66535;52.370;4.832;2023-06-04T01:41:40;43.97;38.28;52.05;;
69670;Laerm;66535;52.370;4.832;2023-06-04T01:42:12;40.48;37.61;45.12;;
69670;Laerm;66535;52.370;4.832;2023-06-04T01:42:43;40.72;37.84;46.00;;
69670;Laerm;66535;52.370;4.832;2023-06-04T01:43:14;40.63;37.04;46.46;;
69670;Laerm;66535;52.370;4.832;2023-06-04T01:43:46;45.17;39.25;50.27;;
69670;Laerm;66535;52.370;4.832;2023-06-04T01:44:17;44.57;41.06;54.47;;
69670;Laerm;66535;52.370;4.832;2023-06-04T01:44:49;39.29;35.87;47.16;;
69670;Laerm;66535;52.370;4.832;2023-06-04T01:45:21;40.01;36.72;42.42;;
69670;Laerm;66535;52.370;4.832;2023-06-04T01:45:53;45.40;39.02;62.14;;
69670;Laerm;66535;52.370;4.832;2023-06-04T01:46:25;39.67;36.67;43.65;;
69670;Laerm;66535;52.370;4.832;2023-06-04T01:46:57;38.95;36.43;43.87;;
69670;Laerm;66535;52.370;4.832;2023-06-04T01:47:28;41.65;38.28;51.22;;
69670;Laerm;66535;52.370;4.832;2023-06-04T01:48:01;41.76;38.66;48.16;;
69670;Laerm;66535;52.370;4.832;2023-06-04T01:48:33;46.22;41.59;50.82;;
69670;Laerm;66535;52.370;4.832;2023-06-04T01:49:04;42.73;38.09;52.02;;
69670;Laerm;66535;52.370;4.832;2023-06-04T01:49:37;49.80;39.83;58.83;;
69670;Laerm;66535;52.370;4.832;2023-06-04T01:50:11;45.82;37.16;53.45;;
69670;Laerm;66535;52.370;4.832;2023-06-04T01:50:42;40.17;37.26;42.60;;
69670;Laerm;66535;52.370;4.832;2023-06-04T01:51:13;40.81;38.65;43.81;;
69670;Laerm;66535;52.370;4.832;2023-06-04T01:51:45;40.71;38.17;48.48;;
69670;Laerm;66535;52.370;4.832;2023-06-04T01:52:17;42.72;38.50;48.47;;
69670;Laerm;66535;52.370;4.832;2023-06-04T01:52:48;50.31;41.78;56.81;;
69670;Laerm;66535;52.370;4.832;2023-06-04T01:53:19;44.66;40.51;49.74;;
69670;Laerm;66535;52.370;4.832;2023-06-04T01:53:51;41.83;39.47;44.06;;
69670;Laerm;66535;52.370;4.832;2023-06-04T01:54:23;41.69;38.77;44.22;;
69670;Laerm;66535;52.370;4.832;2023-06-04T01:54:54;42.05;37.99;48.60;;
69670;Laerm;66535;52.370;4.832;2023-06-04T01:55:26;39.55;36.87;46.11;;
69670;Laerm;66535;52.370;4.832;2023-06-04T01:56:00;39.58;37.55;42.71;;
69670;Laerm;66535;52.370;4.832;2023-06-04T01:56:32;39.71;37.48;41.89;;
69670;Laerm;66535;52.370;4.832;2023-06-04T01:57:04;44.11;38.89;53.35;;
69670;Laerm;66535;52.370;4.832;2023-06-04T01:57:36;47.32;39.24;57.70;;
69670;Laerm;66535;52.370;4.832;2023-06-04T01:58:07;40.03;37.53;44.42;;
69670;Laerm;66535;52.370;4.832;2023-06-04T01:58:40;39.45;37.34;41.78;;
69670;Laerm;66535;52.370;4.832;2023-06-04T01:59:12;40.55;37.13;48.44;;
69670;Laerm;66535;52.370;4.832;2023-06-04T01:59:47;43.06;39.74;49.28;;
69670;Laerm;66535;52.370;4.832;2023-06-04T02:00:18;46.59;39.07;58.28;;
69670;Laerm;66535;52.370;4.832;2023-06-04T02:00:50;41.91;36.45;50.11;;
69670;Laerm;66535;52.370;4.832;2023-06-04T02:01:23;43.40;38.80;49.46;;
69670;Laerm;66535;52.370;4.832;2023-06-04T02:01:55;44.63;39.91;62.65;;
69670;Laerm;66535;52.370;4.832;2023-06-04T02:02:27;43.43;39.63;48.79;;
69670;Laerm;66535;52.370;4.832;2023-06-04T02:02:58;40.34;36.92;45.57;;
69670;Laerm;66535;52.370;4.832;2023-06-04T02:03:30;41.05;37.73;45.60;;
69670;Laerm;66535;52.370;4.832;2023-06-04T02:04:07;43.74;37.99;52.77;;
69670;Laerm;66535;52.370;4.832;2023-06-04T02:04:39;44.01;38.48;51.44;;
69670;Laerm;66535;52.370;4.832;2023-06-04T02:05:12;49.33;39.46;67.19;;
69670;Laerm;66535;52.370;4.832;2023-06-04T02:05:43;40.01;37.50;44.78;;
69670;Laerm;66535;52.370;4.832;2023-06-04T02:06:17;41.62;38.21;46.00;;
69670;Laerm;66535;52.370;4.832;2023-06-04T02:06:49;48.79;40.27;55.78;;
69670;Laerm;66535;52.370;4.832;2023-06-04T02:07:20;43.64;38.06;51.39;;
69670;Laerm;66535;52.370;4.832;2023-06-04T02:07:53;42.87;37.68;56.05;;
69670;Laerm;66535;52.370;4.832;2023-06-04T02:08:24;44.24;39.02;52.42;;
69670;Laerm;66535;52.370;4.832;2023-06-04T02:08:56;42.62;36.66;50.12;;
69670;Laerm;66535;52.370;4.832;2023-06-04T02:09:28;53.09;38.08;62.06;;
69670;Laerm;66535;52.370;4.832;2023-06-04T02:09:59;41.56;38.25;48.37;;
69670;Laerm;66535;52.370;4.832;2023-06-04T02:10:30;45.68;40.02;51.75;;
69670;Laerm;66535;52.370;4.832;2023-06-04T02:11:04;51.06;41.74;61.14;;
69670;Laerm;66535;52.370;4.832;2023-06-04T02:11:35;43.88;37.49;53.63;;
69670;Laerm;66535;52.370;4.832;2023-06-04T02:12:07;41.08;37.44;50.69;;
69670;Laerm;66535;52.370;4.832;2023-06-04T02:12:40;41.55;37.63;49.64;;
69670;Laerm;66535;52.370;4.832;2023-06-04T02:13:12;42.04;38.77;49.54;;
69670;Laerm;66535;52.370;4.832;2023-06-04T02:13:44;40.67;36.75;48.87;;
69670;Laerm;66535;52.370;4.832;2023-06-04T02:14:16;39.79;36.61;47.00;;
69670;Laerm;66535;52.370;4.832;2023-06-04T02:14:47;43.57;36.97;52.68;;
69670;Laerm;66535;52.370;4.832;2023-06-04T02:15:18;41.58;36.47;50.55;;
69670;Laerm;66535;52.370;4.832;2023-06-04T02:15:50;39.47;36.52;50.74;;
69670;Laerm;66535;52.370;4.832;2023-06-04T02:16:22;45.24;36.33;68.17;;
69670;Laerm;66535;52.370;4.832;2023-06-04T02:16:53;41.65;36.50;52.89;;
69670;Laerm;66535;52.370;4.832;2023-06-04T02:17:28;44.46;38.81;54.89;;
69670;Laerm;66535;52.370;4.832;2023-06-04T02:18:12;43.08;38.06;51.31;;
69670;Laerm;66535;52.370;4.832;2023-06-04T02:18:46;42.97;38.14;50.72;;
69670;Laerm;66535;52.370;4.832;2023-06-04T02:19:17;46.60;40.10;66.67;;
69670;Laerm;66535;52.370;4.832;2023-06-04T02:19:50;43.99;39.08;50.74;;
69670;Laerm;66535;52.370;4.832;2023-06-04T02:20:21;41.94;37.84;52.24;;
69670;Laerm;66535;52.370;4.832;2023-06-04T02:20:53;65.23;38.10;85.59;;
69670;Laerm;66535;52.370;4.832;2023-06-04T02:21:25;43.12;38.46;54.97;;
69670;Laerm;66535;52.370;4.832;2023-06-04T02:21:56;42.04;37.84;58.90;;
69670;Laerm;66535;52.370;4.832;2023-06-04T02:22:27;47.06;38.84;58.89;;
69670;Laerm;66535;52.370;4.832;2023-06-04T02:23:00;44.37;39.46;53.68;;
69670;Laerm;66535;52.370;4.832;2023-06-04T02:23:31;43.61;39.19;53.39;;
69670;Laerm;66535;52.370;4.832;2023-06-04T02:24:02;42.77;38.45;56.88;;
69670;Laerm;66535;52.370;4.832;2023-06-04T02:24:34;43.48;37.26;53.71;;
69670;Laerm;66535;52.370;4.832;2023-06-04T02:25:06;45.40;39.79;55.79;;
69670;Laerm;66535;52.370;4.832;2023-06-04T02:25:39;44.22;38.26;56.09;;
69670;Laerm;66535;52.370;4.832;2023-06-04T02:26:13;44.60;36.65;55.91;;
69670;Laerm;66535;52.370;4.832;2023-06-04T02:26:45;43.44;38.40;55.17;;
69670;Laerm;66535;52.370;4.832;2023-06-04T02:27:17;43.72;38.10;51.89;;
69670;Laerm;66535;52.370;4.832;2023-06-04T02:27:49;46.38;40.95;54.88;;
69670;Laerm;66535;52.370;4.832;2023-06-04T02:28:20;44.66;40.17;52.48;;
69670;Laerm;66535;52.370;4.832;2023-06-04T02:28:52;44.74;37.63;55.19;;
69670;Laerm;66535;52.370;4.832;2023-06-04T02:29:23;43.19;37.24;53.62;;
69670;Laerm;66535;52.370;4.832;2023-06-04T02:29:56;44.54;37.24;60.10;;
69670;Laerm;66535;52.370;4.832;2023-06-04T02:30:27;44.83;38.07;52.91;;
69670;Laerm;66535;52.370;4.832;2023-06-04T02:30:58;45.41;40.93;52.24;;
69670;Laerm;66535;52.370;4.832;2023-06-04T02:31:30;44.85;40.88;53.93;;
69670;Laerm;66535;52.370;4.832;2023-06-04T02:32:02;48.65;41.87;61.66;;
69670;Laerm;66535;52.370;4.832;2023-06-04T02:32:33;54.22;40.76;61.58;;
69670;Laerm;66535;52.370;4.832;2023-06-04T02:33:06;46.55;41.35;52.54;;
69670;Laerm;66535;52.370;4.832;2023-06-04T02:33:40;44.04;39.79;55.31;;
69670;Laerm;66535;52.370;4.832;2023-06-04T02:34:11;41.83;37.62;50.87;;
69670;Laerm;66535;52.370;4.832;2023-06-04T02:34:43;43.29;37.71;54.01;;
69670;Laerm;66535;52.370;4.832;2023-06-04T02:35:15;43.03;37.73;53.89;;
69670;Laerm;66535;52.370;4.832;2023-06-04T02:35:47;48.81;40.62;62.99;;
69670;Laerm;66535;52.370;4.832;2023-06-04T02:36:18;42.99;39.45;47.65;;
69670;Laerm;66535;52.370;4.832;2023-06-04T02:36:51;44.51;41.38;50.38;;
69670;Laerm;66535;52.370;4.832;2023-06-04T02:37:22;44.81;40.83;48.81;;
69670;Laerm;66535;52.370;4.832;2023-06-04T02:37:53;44.87;41.27;48.02;;
69670;Laerm;66535;52.370;4.832;2023-06-04T02:38:24;46.60;40.82;57.23;;
69670;Laerm;66535;52.370;4.832;2023-06-04T02:38:56;45.69;40.98;55.21;;
69670;Laerm;66535;52.370;4.832;2023-06-04T02:39:28;45.09;41.08;50.58;;
69670;Laerm;66535;52.370;4.832;2023-06-04T02:39:59;45.62;40.83;54.73;;
69670;Laerm;66535;52.370;4.832;2023-06-04T02:40:30;45.58;38.59;57.35;;
69670;Laerm;66535;52.370;4.832;2023-06-04T02:41:02;44.50;38.49;55.81;;
69670;Laerm;66535;52.370;4.832;2023-06-04T02:41:35;46.25;40.04;55.58;;
69670;Laerm;66535;52.370;4.832;2023-06-04T02:42:07;46.43;38.78;56.38;;
69670;Laerm;66535;52.370;4.832;2023-06-04T02:42:39;45.26;40.10;55.57;;
69670;Laerm;66535;52.370;4.832;2023-06-04T02:43:11;44.41;39.74;55.34;;
69670;Laerm;66535;52.370;4.832;2023-06-04T02:43:42;42.69;38.92;56.96;;
69670;Laerm;66535;52.370;4.832;2023-06-04T02:44:14;43.78;39.84;50.95;;
69670;Laerm;66535;52.370;4.832;2023-06-04T02:44:45;44.69;40.45;54.64;;
69670;Laerm;66535;52.370;4.832;2023-06-04T02:45:16;45.54;40.01;58.21;;
69670;Laerm;66535;52.370;4.832;2023-06-04T02:45:49;46.40;41.24;59.44;;
69670;Laerm;66535;52.370;4.832;2023-06-04T02:46:20;44.67;40.70;54.23;;
69670;Laerm;66535;52.370;4.832;2023-06-04T02:46:51;44.14;39.41;53.98;;
69670;Laerm;66535;52.370;4.832;2023-06-04T02:47:23;44.09;39.29;52.55;;
69670;Laerm;66535;52.370;4.832;2023-06-04T02:47:55;45.85;40.58;53.43;;
69670;Laerm;66535;52.370;4.832;2023-06-04T02:48:26;45.41;38.63;55.26;;
69670;Laerm;66535;52.370;4.832;2023-06-04T02:48:58;45.36;39.16;58.69;;
69670;Laerm;66535;52.370;4.832;2023-06-04T02:49:30;46.99;40.09;54.28;;
69670;Laerm;66535;52.370;4.832;2023-06-04T02:50:01;47.36;42.93;53.46;;
69670;Laerm;66535;52.370;4.832;2023-06-04T02:50:34;43.78;39.60;51.87;;
69670;Laerm;66535;52.370;4.832;2023-06-04T02:51:06;45.87;41.06;54.31;;
69670;Laerm;66535;52.370;4.832;2023-06-04T02:51:41;46.90;40.03;56.53;;
69670;Laerm;66535;52.370;4.832;2023-06-04T02:52:12;46.61;39.40;58.16;;
69670;Laerm;66535;52.370;4.832;2023-06-04T02:52:45;45.29;39.14;58.59;;
69670;Laerm;66535;52.370;4.832;2023-06-04T02:53:16;48.43;40.62;58.46;;
69670;Laerm;66535;52.370;4.832;2023-06-04T02:53:47;48.59;41.60;57.32;;
69670;Laerm;66535;52.370;4.832;2023-06-04T02:54:19;46.02;39.77;56.83;;
69670;Laerm;66535;52.370;4.832;2023-06-04T02:54:51;44.75;38.31;56.67;;
69670;Laerm;66535;52.370;4.832;2023-06-04T02:55:22;43.65;37.28;56.25;;
69670;Laerm;66535;52.370;4.832;2023-06-04T02:55:54;48.84;37.48;59.43;;
69670;Laerm;66535;52.370;4.832;2023-06-04T02:56:26;46.34;39.65;56.71;;
69670;Laerm;66535;52.370;4.832;2023-06-04T02:56:59;44.71;37.69;53.92;;
69670;Laerm;66535;52.370;4.832;2023-06-04T02:57:31;46.63;38.66;58.08;;
69670;Laerm;66535;52.370;4.832;2023-06-04T02:58:03;41.69;37.39;50.43;;
69670;Laerm;66535;52.370;4.832;2023-06-04T02:58:34;44.04;38.20;54.78;;
69670;Laerm;66535;52.370;4.832;2023-06-04T02:59:10;44.61;39.10;53.96;;
69670;Laerm;66535;52.370;4.832;2023-06-04T02:59:42;43.78;37.49;54.33;;
69670;Laerm;66535;52.370;4.832;2023-06-04T03:00:14;44.26;38.52;52.94;;
69670;Laerm;66535;52.370;4.832;2023-06-04T03:00:46;44.06;38.29;55.70;;
69670;Laerm;66535;52.370;4.832;2023-06-04T03:01:18;45.23;39.06;61.31;;